KELK Airport (Elk City Rgnl Business) Information

FAA: ELK - ICAO: KELK

KELK Airport Location

State Oklahoma
County Beckham
City Elk City
KELK Airport is 1 miles northeast of Elk City, OK.
Latitude 35-25-50.8000N
Longitude 099-23-39.4000W
Elevation 2,012ft

KELK Airport METARs

METAR KELK 181415Z AUTO 00000KT 10SM CLR M01/M06 A2980 RMK AO2 T10071060
Altimeter 29.80"
Temperature -0.7°C (30.7°F)
Wind 0° at 0KT
Clouds Skies are clear.
Visibility 10.0mi
Time observed: 2022-01-18T14:15:00Z

KELK Airport Details

Status Operational
Activation November 1948
Ownership Public
Usage Public
Chart DALLAS-FT WORTH
ATC on-site No
Beacon schedule sunset-sunrise
Beacon color clear green

KELK Airport Contacts

Owner CITY OF ELK CITY
Owner address BOX 1100, ELK CITY, OK 73644
Owner phone 580-225-3230
Manager GENE PITTMAN
Manager address 227 E MAIN ST, DAVIS, OK 73030
Manager phone (580) 618-0303

KELK Airport (Elk City Rgnl Business) Radio Frequencies

KELK (Airport) Radio Frequencies

UNICOM 122.8
Common traffic advisory frequency (CTAF) 122.8